Time;durP1;ratioP1;P1;durP2;ratioP2;P2;SDS_P1;SDS_P2;PMS_P1;PMS_P2;Temp;Humidity;BMP_temperature;BMP_pressure;BME280_temperature;BME280_humidity;BME280_pressure;Samples;Min_cycle;Max_cycle;Signal;HPM_P1;HPM_P2
2021/06/22 00:00:03;;;;;;;;;;;;;;;24.41;72.55;100345.89;1761513;80;21096;-61
2021/06/22 00:02:29;;;;;;;;;;;;;;;24.43;72.59;100350.53;1766268;80;20560;-61
2021/06/22 00:04:55;;;;;;;;;;;;;;;24.43;72.58;100355.52;1762559;80;20783;-61
2021/06/22 00:07:21;;;;;;;;;;;;;;;24.42;72.59;100346.94;1770003;79;20152;-62
2021/06/22 00:09:47;;;;;;;;;;;;;;;24.41;72.59;100345.89;1763564;79;20188;-62
2021/06/22 00:12:13;;;;;;;;;;;;;;;24.39;72.57;100353.80;1767339;79;21113;-61
2021/06/22 00:14:39;;;;;;;;;;;;;;;24.37;72.57;100356.11;1764532;79;20141;-61
2021/06/22 00:17:05;;;;;;;;;;;;;;;24.34;72.54;100356.25;1761363;79;20172;-63
2021/06/22 00:19:31;;;;;;;;;;;;;;;24.31;72.51;100358.94;1768516;79;20149;-62
2021/06/22 00:21:57;;;;;;;;;;;;;;;24.26;72.51;100354.43;1761823;79;20840;-63
2021/06/22 00:24:23;;;;;;;;;;;;;;;24.21;72.52;100353.28;1770769;80;21763;-62
2021/06/22 00:26:49;;;;;;;;;;;;;;;24.16;72.51;100347.97;1770433;80;20757;-62
2021/06/22 00:29:16;;;;;;;;;;;;;;;24.11;72.53;100346.21;1764137;80;20175;-61
2021/06/22 00:31:42;;;;;;;;;;;;;;;24.06;72.57;100342.89;1764266;79;20200;-61
2021/06/22 00:34:08;;;;;;;;;;;;;;;24.04;72.56;100337.67;1766638;80;20419;-62
2021/06/22 00:36:34;;;;;;;;;;;;;;;24.03;72.57;100333.84;1764527;81;21102;-62
2021/06/22 00:39:00;;;;;;;;;;;;;;;24.00;72.64;100329.00;1768208;79;20470;-62
2021/06/22 00:41:26;;;;;;;;;;;;;;;24.00;72.72;100320.67;1766032;79;20789;-62
2021/06/22 00:43:52;;;;;;;;;;;;;;;24.01;72.79;100309.79;1762797;79;20471;-61
2021/06/22 00:46:18;;;;;;;;;;;;;;;24.03;72.87;100307.45;1771087;80;20718;-62
2021/06/22 00:48:44;;;;;;;;;;;;;;;24.03;72.94;100304.67;1762002;79;21090;-62
2021/06/22 00:51:10;;;;;;;;;;;;;;;24.06;72.99;100305.37;1772307;79;20185;-62
2021/06/22 00:53:36;;;;;;;;;;;;;;;24.08;73.03;100299.68;1767049;79;20215;-62
2021/06/22 00:56:02;;;;;;;;;;;;;;;24.11;73.06;100303.13;1750278;80;20178;-62
2021/06/22 00:58:28;;;;;;;;;;;;;;;24.13;73.07;100293.06;1738276;81;20191;-62
2021/06/22 01:00:53;;;;;;;;;;;;;;;24.16;73.07;100290.98;1735478;81;21102;-62
2021/06/22 01:03:20;;;;;;;;;;;;;;;24.19;73.10;100281.94;1736662;81;20246;-63
2021/06/22 01:05:45;;;;;;;;;;;;;;;24.22;73.08;100273.48;1734623;81;20193;-62
2021/06/22 01:08:12;;;;;;;;;;;;;;;24.25;73.09;100265.81;1740410;81;20182;-61
2021/06/22 01:10:38;;;;;;;;;;;;;;;24.26;73.06;100265.47;1735092;81;20388;-62
2021/06/22 01:13:04;;;;;;;;;;;;;;;24.29;73.04;100261.16;1735909;81;21188;-62
2021/06/22 01:15:30;;;;;;;;;;;;;;;24.30;73.04;100258.03;1736000;81;20771;-62
2021/06/22 01:17:59;;;;;;;;;;;;;;;24.31;73.02;100255.49;1733632;81;20171;-62
2021/06/22 01:20:30;;;;;;;;;;;;;;;24.30;73.00;100258.03;1739011;81;20144;-62
2021/06/22 01:22:54;;;;;;;;;;;;;;;24.30;72.98;100258.61;1735268;81;20230;-63
2021/06/22 01:25:19;;;;;;;;;;;;;;;24.28;72.95;100266.48;1738819;81;21137;-61
2021/06/22 01:27:46;;;;;;;;;;;;;;;24.26;72.91;100274.39;1737522;80;20203;-61
2021/06/22 01:30:12;;;;;;;;;;;;;;;24.22;72.89;100272.91;1730793;81;20458;-62
2021/06/22 01:32:38;;;;;;;;;;;;;;;24.18;72.86;100274.78;1733797;81;20145;-62
2021/06/22 01:35:06;;;;;;;;;;;;;;;24.14;72.83;100269.67;1734725;81;20170;-62
2021/06/22 01:37:32;;;;;;;;;;;;;;;24.09;72.85;100265.75;1730847;81;21115;-61
2021/06/22 01:40:06;;;;;;;;;;;;;;;24.05;72.86;100271.80;1737878;81;20357;-62
2021/06/22 01:42:32;;;;;;;;;;;;;;;23.99;72.84;100275.97;1741694;81;20407;-62
2021/06/22 01:44:58;;;;;;;;;;;;;;;23.94;72.86;100275.64;1738398;82;20720;-61
2021/06/22 01:47:25;;;;;;;;;;;;;;;23.91;72.86;100272.77;1738680;81;20129;-62
2021/06/22 01:50:01;;;;;;;;;;;;;;;23.89;72.88;100264.77;1733452;81;23296;-62
2021/06/22 01:52:27;;;;;;;;;;;;;;;23.88;72.95;100272.09;1730250;81;20166;-63
2021/06/22 01:54:54;;;;;;;;;;;;;;;23.89;73.03;100270.94;1735284;80;20591;-62
2021/06/22 01:57:22;;;;;;;;;;;;;;;23.88;73.12;100267.34;1759852;80;21236;-62
2021/06/22 01:59:48;;;;;;;;;;;;;;;23.92;73.17;100267.44;1758800;79;20141;-62
2021/06/22 02:02:14;;;;;;;;;;;;;;;23.95;73.21;100266.73;1759129;79;21102;-62
2021/06/22 02:04:40;;;;;;;;;;;;;;;23.96;73.28;100269.16;1766793;80;20457;-62
2021/06/22 02:07:06;;;;;;;;;;;;;;;24.00;73.31;100272.85;1765336;79;20419;-62
2021/06/22 02:09:32;;;;;;;;;;;;;;;24.03;73.32;100273.52;1756052;79;21657;-62
2021/06/22 02:11:58;;;;;;;;;;;;;;;24.06;73.34;100275.59;1757492;79;20167;-62
2021/06/22 02:14:24;;;;;;;;;;;;;;;24.09;73.33;100272.70;1763251;79;21792;-61
2021/06/22 02:16:50;;;;;;;;;;;;;;;24.12;73.34;100282.52;1761282;79;20167;-62
2021/06/22 02:19:16;;;;;;;;;;;;;;;24.15;73.33;100281.03;1756927;79;20169;-62
2021/06/22 02:21:42;;;;;;;;;;;;;;;24.16;73.30;100278.48;1753105;79;20347;-62
2021/06/22 02:24:09;;;;;;;;;;;;;;;24.19;73.26;100281.16;1762071;79;20241;-61
2021/06/22 02:26:35;;;;;;;;;;;;;;;24.21;73.26;100271.86;1756878;79;21112;-62
2021/06/22 02:29:00;;;;;;;;;;;;;;;24.21;73.27;100268.50;1755075;79;20818;-64
2021/06/22 02:31:27;;;;;;;;;;;;;;;24.22;73.22;100269.31;1761963;79;20769;-62
2021/06/22 02:33:53;;;;;;;;;;;;;;;24.22;73.22;100274.87;1753777;79;20506;-62
2021/06/22 02:36:23;;;;;;;;;;;;;;;24.19;73.17;100286.10;1765883;79;20133;-62
2021/06/22 02:38:46;;;;;;;;;;;;;;;24.18;73.14;100292.84;1759370;80;21249;-61
2021/06/22 02:41:12;;;;;;;;;;;;;;;24.16;73.09;100296.55;1750807;80;21242;-61
2021/06/22 02:43:38;;;;;;;;;;;;;;;24.10;73.05;100295.95;1765510;79;20183;-62
2021/06/22 02:46:04;;;;;;;;;;;;;;;24.07;73.04;100295.86;1761606;79;20159;-62
2021/06/22 02:48:30;;;;;;;;;;;;;;;24.04;73.02;100296.56;1754785;80;20155;-62
2021/06/22 02:50:56;;;;;;;;;;;;;;;23.97;73.00;100289.42;1757277;79;21177;-62
2021/06/22 02:53:22;;;;;;;;;;;;;;;23.93;73.03;100291.30;1762940;79;20450;-62
2021/06/22 02:55:48;;;;;;;;;;;;;;;23.88;73.03;100290.95;1762476;79;20753;-62
2021/06/22 02:58:14;;;;;;;;;;;;;;;23.83;73.04;100282.86;1763747;79;20586;-63
2021/06/22 03:00:39;;;;;;;;;;;;;;;23.81;73.06;100282.97;1759735;79;20268;-62
2021/06/22 03:03:05;;;;;;;;;;;;;;;23.80;73.07;100284.97;1766964;79;23257;-62
2021/06/22 03:05:31;;;;;;;;;;;;;;;23.79;73.15;100284.73;1765892;79;20242;-62
2021/06/22 03:07:58;;;;;;;;;;;;;;;23.80;73.24;100283.58;1755108;79;20201;-62
2021/06/22 03:10:24;;;;;;;;;;;;;;;23.82;73.30;100280.43;1757609;81;20193;-62
2021/06/22 03:12:51;;;;;;;;;;;;;;;23.84;73.37;100284.48;1756691;79;20398;-62
2021/06/22 03:15:17;;;;;;;;;;;;;;;23.87;73.41;100283.78;1752387;79;23204;-62
2021/06/22 03:17:44;;;;;;;;;;;;;;;23.89;73.44;100280.66;1757450;79;20186;-62
2021/06/22 03:20:11;;;;;;;;;;;;;;;23.94;73.46;100285.94;1764562;80;20481;-62
2021/06/22 03:22:37;;;;;;;;;;;;;;;23.96;73.47;100278.08;1759661;80;20141;-61
2021/06/22 03:25:04;;;;;;;;;;;;;;;23.99;73.48;100277.36;1752310;79;20742;-62
2021/06/22 03:27:31;;;;;;;;;;;;;;;24.02;73.46;100283.59;1750998;79;21199;-62
2021/06/22 03:29:57;;;;;;;;;;;;;;;24.04;73.46;100293.21;1754248;79;20161;-62
2021/06/22 03:32:23;;;;;;;;;;;;;;;24.07;73.46;100293.08;1762617;79;20185;-62
2021/06/22 03:34:49;;;;;;;;;;;;;;;24.09;73.41;100299.91;1760666;79;20496;-62
2021/06/22 03:37:15;;;;;;;;;;;;;;;24.12;73.41;100301.16;1761662;79;20242;-62
2021/06/22 03:39:40;;;;;;;;;;;;;;;24.14;73.40;100297.47;1754739;79;20991;-62
2021/06/22 03:42:08;;;;;;;;;;;;;;;24.16;73.35;100302.69;1758374;79;20576;-65
2021/06/22 03:44:34;;;;;;;;;;;;;;;24.17;73.34;100293.19;1750643;79;20254;-62
2021/06/22 03:47:00;;;;;;;;;;;;;;;24.17;73.32;100295.39;1766238;79;20234;-62
2021/06/22 03:49:26;;;;;;;;;;;;;;;24.16;73.29;100299.33;1735354;80;20207;-62
2021/06/22 03:51:53;;;;;;;;;;;;;;;24.15;73.25;100300.48;1763077;80;21062;-62
2021/06/22 03:54:20;;;;;;;;;;;;;;;24.12;73.20;100297.81;1754090;79;20165;-62
2021/06/22 03:56:46;;;;;;;;;;;;;;;24.09;73.16;100299.91;1751149;79;20141;-62
2021/06/22 03:59:11;;;;;;;;;;;;;;;24.06;73.13;100298.42;1759876;79;20190;-63
2021/06/22 04:01:37;;;;;;;;;;;;;;;24.02;73.11;100300.27;1762177;79;20745;-61
2021/06/22 04:04:04;;;;;;;;;;;;;;;23.96;73.09;100298.34;1756550;79;23343;-61
2021/06/22 04:06:30;;;;;;;;;;;;;;;23.91;73.08;100302.75;1756320;79;20089;-62
2021/06/22 04:08:56;;;;;;;;;;;;;;;23.87;73.10;100305.19;1751052;79;20141;-61
2021/06/22 04:11:22;;;;;;;;;;;;;;;23.82;73.10;100310.41;1762339;79;20538;-63
2021/06/22 04:13:48;;;;;;;;;;;;;;;23.78;73.10;100308.69;1763728;80;20129;-62
2021/06/22 04:16:14;;;;;;;;;;;;;;;23.77;73.11;100308.45;1765696;79;21280;-62
2021/06/22 04:18:40;;;;;;;;;;;;;;;23.75;73.15;100313.56;1760405;79;20431;-62
2021/06/22 04:21:06;;;;;;;;;;;;;;;23.75;73.21;100317.73;1768677;79;20771;-62
2021/06/22 04:23:32;;;;;;;;;;;;;;;23.74;73.29;100314.13;1763284;79;20194;-61
2021/06/22 04:25:58;;;;;;;;;;;;;;;23.77;73.37;100317.59;1765671;79;20378;-62
2021/06/22 04:28:24;;;;;;;;;;;;;;;23.79;73.42;100316.67;1754790;79;22001;-62
2021/06/22 04:30:50;;;;;;;;;;;;;;;23.82;73.47;100310.98;1763115;79;21696;-62
2021/06/22 04:33:16;;;;;;;;;;;;;;;23.86;73.48;100314.67;1763149;80;20179;-62
2021/06/22 04:35:42;;;;;;;;;;;;;;;23.89;73.52;100319.55;1753879;79;20183;-62
2021/06/22 04:38:08;;;;;;;;;;;;;;;23.92;73.52;100323.02;1760395;79;20141;-62
2021/06/22 04:40:35;;;;;;;;;;;;;;;23.97;73.53;100324.16;1762908;79;21771;-62
2021/06/22 04:43:01;;;;;;;;;;;;;;;24.00;73.53;100335.37;1765948;79;20187;-61
2021/06/22 04:45:28;;;;;;;;;;;;;;;24.02;73.51;100334.42;1762609;79;20145;-62
2021/06/22 04:47:54;;;;;;;;;;;;;;;24.05;73.47;100332.35;1761154;79;20408;-62
2021/06/22 04:50:21;;;;;;;;;;;;;;;24.08;73.45;100330.83;1758232;79;20249;-62
2021/06/22 04:52:47;;;;;;;;;;;;;;;24.10;73.42;100330.69;1763420;79;21122;-62
2021/06/22 04:55:15;;;;;;;;;;;;;;;24.11;73.40;100327.33;1763664;79;20165;-63
2021/06/22 04:57:42;;;;;;;;;;;;;;;24.11;73.39;100331.50;1753928;79;20157;-63
2021/06/22 05:00:09;;;;;;;;;;;;;;;24.11;73.35;100328.72;1750219;80;20191;-62
2021/06/22 05:02:35;;;;;;;;;;;;;;;24.08;73.31;100331.64;1751730;80;20193;-62
2021/06/22 05:05:03;;;;;;;;;;;;;;;24.07;73.27;100334.76;1755282;80;21132;-63
2021/06/22 05:07:29;;;;;;;;;;;;;;;24.04;73.21;100335.47;1750650;80;20204;-62
2021/06/22 05:09:56;;;;;;;;;;;;;;;23.99;73.17;100337.11;1751243;81;20188;-62
2021/06/22 05:12:23;;;;;;;;;;;;;;;23.95;73.15;100330.05;1754395;80;20506;-62
2021/06/22 05:14:48;;;;;;;;;;;;;;;23.91;73.13;100338.87;1754195;80;20146;-63
2021/06/22 05:17:14;;;;;;;;;;;;;;;23.86;73.13;100341.07;1749964;80;21080;-62
2021/06/22 05:19:40;;;;;;;;;;;;;;;23.82;73.15;100338.77;1755016;80;20193;-62
2021/06/22 05:22:06;;;;;;;;;;;;;;;23.78;73.15;100351.73;1751613;80;20302;-62
2021/06/22 05:24:32;;;;;;;;;;;;;;;23.74;73.17;100356.38;1751691;80;20158;-61
2021/06/22 05:26:58;;;;;;;;;;;;;;;23.73;73.17;100363.08;1753232;79;20163;-63
2021/06/22 05:29:24;;;;;;;;;;;;;;;23.71;73.20;100362.06;1753018;80;21043;-63
2021/06/22 05:31:50;;;;;;;;;;;;;;;23.72;73.28;100351.77;1749267;80;20432;-62
2021/06/22 05:34:16;;;;;;;;;;;;;;;23.72;73.35;100354.55;1748744;80;20184;-62
2021/06/22 05:36:42;;;;;;;;;;;;;;;23.74;73.41;100360.54;1749540;80;20171;-62
2021/06/22 05:39:08;;;;;;;;;;;;;;;23.76;73.49;100369.34;1748101;80;20190;-62
2021/06/22 05:41:33;;;;;;;;;;;;;;;23.79;73.51;100368.64;1747363;80;21022;-62
2021/06/22 05:43:59;;;;;;;;;;;;;;;23.82;73.56;100372.10;1750923;80;20754;-62
2021/06/22 05:46:25;;;;;;;;;;;;;;;23.85;73.57;100370.81;1748801;80;20210;-62
2021/06/22 05:48:51;;;;;;;;;;;;;;;23.89;73.59;100375.12;1752263;80;20223;-62
2021/06/22 05:51:17;;;;;;;;;;;;;;;23.92;73.59;100378.58;1750954;80;20162;-61
2021/06/22 05:53:43;;;;;;;;;;;;;;;23.96;73.61;100385.87;1752219;80;21043;-62
2021/06/22 05:56:09;;;;;;;;;;;;;;;24.00;73.59;100395.12;1752107;80;20256;-62
2021/06/22 05:58:35;;;;;;;;;;;;;;;24.02;73.57;100387.23;1727223;81;21789;-62
2021/06/22 06:01:01;;;;;;;;;;;;;;;24.06;73.52;100390.14;1721791;81;20688;-63
2021/06/22 06:03:27;;;;;;;;;;;;;;;24.08;73.52;100389.19;1719280;80;20269;-62
2021/06/22 06:05:53;;;;;;;;;;;;;;;24.08;73.50;100391.97;1723255;82;23218;-62
2021/06/22 06:08:19;;;;;;;;;;;;;;;24.08;73.47;100388.61;1726909;82;20248;-63
2021/06/22 06:10:45;;;;;;;;;;;;;;;24.08;73.45;100391.97;1729039;80;20284;-61
2021/06/22 06:13:11;;;;;;;;;;;;;;;24.07;73.40;100388.95;1729987;82;20194;-62
2021/06/22 06:15:37;;;;;;;;;;;;;;;24.05;73.34;100391.29;1730237;82;20744;-62
2021/06/22 06:18:03;;;;;;;;;;;;;;;24.02;73.31;100394.75;1720457;82;21108;-62
2021/06/22 06:20:29;;;;;;;;;;;;;;;23.98;73.27;100395.22;1733614;80;20208;-61
2021/06/22 06:22:57;;;;;;;;;;;;;;;23.95;73.25;100401.48;1721349;81;20300;-62
2021/06/22 06:25:23;;;;;;;;;;;;;;;23.91;73.27;100406.13;1726696;80;20191;-61
2021/06/22 06:27:55;;;;;;;;;;;;;;;23.87;73.21;100401.04;1732131;80;20748;-62
2021/06/22 06:30:26;;;;;;;;;;;;;;;23.83;73.23;100405.10;1721154;82;21310;-61
2021/06/22 06:32:52;;;;;;;;;;;;;;;23.79;73.26;100397.81;1733581;80;20163;-62
2021/06/22 06:35:18;;;;;;;;;;;;;;;23.76;73.27;100396.55;1722180;82;20191;-61
2021/06/22 06:37:45;;;;;;;;;;;;;;;23.77;73.27;100393.17;1728783;80;20437;-62
2021/06/22 06:40:11;;;;;;;;;;;;;;;23.76;73.26;100397.13;1726844;80;20194;-62
2021/06/22 06:42:37;;;;;;;;;;;;;;;23.77;73.30;100390.39;1730886;80;21106;-61
2021/06/22 06:45:05;;;;;;;;;;;;;;;23.78;73.39;100387.27;1722548;80;20156;-61
2021/06/22 06:47:31;;;;;;;;;;;;;;;23.79;73.45;100384.73;1722653;80;20139;-61
2021/06/22 06:49:57;;;;;;;;;;;;;;;23.82;73.51;100384.03;1728944;81;20472;-62
2021/06/22 06:52:23;;;;;;;;;;;;;;;23.86;73.54;100382.74;1729466;81;20816;-62
2021/06/22 06:54:49;;;;;;;;;;;;;;;23.90;73.58;100392.81;1725307;82;20772;-62
2021/06/22 06:57:15;;;;;;;;;;;;;;;23.94;73.60;100389.56;1737646;80;20237;-61
2021/06/22 06:59:41;;;;;;;;;;;;;;;23.98;73.60;100384.11;1768197;79;20185;-62
2021/06/22 07:02:07;;;;;;;;;;;;;;;24.03;73.60;100386.07;1764089;79;20170;-62
2021/06/22 07:04:34;;;;;;;;;;;;;;;24.07;73.56;100386.17;1767126;79;20447;-61
2021/06/22 07:07:00;;;;;;;;;;;;;;;24.10;73.55;100375.77;1770457;79;21181;-61
2021/06/22 07:09:27;;;;;;;;;;;;;;;24.14;73.55;100377.46;1767528;80;20175;-61
2021/06/22 07:11:55;;;;;;;;;;;;;;;24.16;73.48;100368.81;1768233;79;20537;-62
2021/06/22 07:14:21;;;;;;;;;;;;;;;24.20;73.47;100364.16;1766306;79;20192;-62
2021/06/22 07:16:48;;;;;;;;;;;;;;;24.21;73.46;100368.57;1765885;79;20219;-61
2021/06/22 07:19:14;;;;;;;;;;;;;;;24.23;73.41;100366.23;1762872;79;21099;-61
2021/06/22 07:21:40;;;;;;;;;;;;;;;24.23;73.38;100370.41;1765509;79;20437;-62
2021/06/22 07:24:07;;;;;;;;;;;;;;;24.23;73.29;100366.23;1763091;80;20197;-62
2021/06/22 07:26:34;;;;;;;;;;;;;;;24.20;73.24;100361.39;1759552;79;20159;-61
2021/06/22 07:29:00;;;;;;;;;;;;;;;24.19;73.21;100360.38;1762104;80;20233;-62
2021/06/22 07:31:26;;;;;;;;;;;;;;;24.16;73.16;100357.70;1768886;79;21083;-62
2021/06/22 07:33:52;;;;;;;;;;;;;;;24.12;73.11;100359.53;1763804;79;20832;-61
2021/06/22 07:36:18;;;;;;;;;;;;;;;24.07;73.11;100346.69;1767347;80;20093;-61
2021/06/22 07:38:44;;;;;;;;;;;;;;;24.05;73.10;100356.55;1767117;79;21988;-61
2021/06/22 07:41:10;;;;;;;;;;;;;;;24.01;73.10;100353.67;1766834;79;20204;-62
2021/06/22 07:43:36;;;;;;;;;;;;;;;23.97;73.09;100355.54;1759431;79;21170;-62
2021/06/22 07:46:02;;;;;;;;;;;;;;;23.94;73.10;100351.23;1768601;80;20199;-61
2021/06/22 07:48:28;;;;;;;;;;;;;;;23.93;73.10;100353.20;1763036;80;20286;-61
2021/06/22 07:50:54;;;;;;;;;;;;;;;23.92;73.12;100353.00;1762166;80;20253;-61
2021/06/22 07:53:20;;;;;;;;;;;;;;;23.92;73.15;100354.38;1766686;80;20549;-61
2021/06/22 07:55:46;;;;;;;;;;;;;;;23.94;73.23;100360.38;1759881;79;21373;-61
2021/06/22 07:58:12;;;;;;;;;;;;;;;23.94;73.26;100354.83;1750213;80;21697;-62
2021/06/22 08:00:41;;;;;;;;;;;;;;;23.97;73.31;100361.67;1736185;80;20313;-61
2021/06/22 08:03:09;;;;;;;;;;;;;;;23.99;73.35;100353.78;1735591;80;20842;-61
2021/06/22 08:05:34;;;;;;;;;;;;;;;24.04;73.38;100357.12;1735851;80;20238;-62
2021/06/22 08:08:00;;;;;;;;;;;;;;;24.07;73.41;100360.59;1736494;80;21581;-62
2021/06/22 08:10:27;;;;;;;;;;;;;;;24.10;73.39;100360.48;1736368;80;20750;-62
2021/06/22 08:12:54;;;;;;;;;;;;;;;24.14;73.40;100357.22;1735071;80;20312;-62
2021/06/22 08:15:20;;;;;;;;;;;;;;;24.18;73.39;100366.51;1720178;80;20277;-61
2021/06/22 08:17:46;;;;;;;;;;;;;;;24.22;73.36;100366.61;1736897;80;20180;-62
2021/06/22 08:20:13;;;;;;;;;;;;;;;24.25;73.35;100370.88;1735881;80;21140;-62
2021/06/22 08:22:39;;;;;;;;;;;;;;;24.29;73.28;100370.97;1734920;80;20245;-62
2021/06/22 08:25:06;;;;;;;;;;;;;;;24.32;73.26;100373.04;1735890;80;20328;-62
2021/06/22 08:27:32;;;;;;;;;;;;;;;24.33;73.27;100375.48;1734980;80;20533;-62
2021/06/22 08:29:58;;;;;;;;;;;;;;;24.35;73.22;100384.28;1735494;80;21822;-62
2021/06/22 08:32:24;;;;;;;;;;;;;;;24.34;73.17;100377.10;1733468;80;22725;-62
2021/06/22 08:34:50;;;;;;;;;;;;;;;24.34;73.13;100377.10;1735715;80;20221;-62
2021/06/22 08:37:16;;;;;;;;;;;;;;;24.32;73.05;100387.75;1735893;80;20201;-62
2021/06/22 08:39:42;;;;;;;;;;;;;;;24.30;73.02;100384.53;1736610;80;20199;-62
2021/06/22 08:42:09;;;;;;;;;;;;;;;24.28;72.98;100388.23;1737918;80;20229;-67
2021/06/22 08:44:37;;;;;;;;;;;;;;;24.26;72.93;100393.92;1735499;80;21081;-60
2021/06/22 08:47:03;;;;;;;;;;;;;;;24.23;72.90;100397.42;1733631;80;20299;-59
2021/06/22 08:49:30;;;;;;;;;;;;;;;24.21;72.89;100401.11;1736784;80;20446;-59
2021/06/22 08:51:56;;;;;;;;;;;;;;;24.18;72.86;100401.25;1718328;81;20261;-62
2021/06/22 08:54:22;;;;;;;;;;;;;;;24.16;72.85;100407.73;1737562;80;20143;-59
2021/06/22 08:56:48;;;;;;;;;;;;;;;24.13;72.85;100411.19;1733897;80;21078;-59
2021/06/22 08:59:14;;;;;;;;;;;;;;;24.13;72.82;100407.02;1751405;80;20191;-59
2021/06/22 09:01:40;;;;;;;;;;;;;;;24.12;72.80;100408.98;1749601;80;20422;-59
2021/06/22 09:04:06;;;;;;;;;;;;;;;24.13;72.83;100402.84;1747342;80;20639;-59
2021/06/22 09:06:41;;;;;;;;;;;;;;;24.14;72.87;100400.30;1750017;80;20169;-60
2021/06/22 09:09:07;;;;;;;;;;;;;;;24.17;72.91;100406.58;1753003;80;21097;-59
2021/06/22 09:11:33;;;;;;;;;;;;;;;24.21;72.95;100407.48;1751406;80;20350;-59
2021/06/22 09:14:02;;;;;;;;;;;;;;;24.25;72.97;100397.86;1722775;81;20608;-59
2021/06/22 09:16:28;;;;;;;;;;;;;;;24.30;72.98;100405.38;1753586;80;20486;-59
2021/06/22 09:19:06;;;;;;;;;;;;;;;24.34;73.00;100404.91;1751995;80;20124;-60
2021/06/22 09:21:40;;;;;;;;;;;;;;;24.39;72.97;100399.10;1750571;80;21108;-60
2021/06/22 09:24:17;;;;;;;;;;;;;;;24.44;72.93;100398.05;1751722;80;20200;-60
2021/06/22 09:26:45;;;;;;;;;;;;;;;24.49;72.90;100399.16;1750781;80;20219;-59
2021/06/22 09:29:13;;;;;;;;;;;;;;;24.51;72.85;100401.02;1750319;80;20184;-60
2021/06/22 09:31:59;;;;;;;;;;;;;;;24.55;72.77;100404.70;1753086;80;20346;-59
2021/06/22 09:34:27;;;;;;;;;;;;;;;24.58;72.75;100403.41;1753925;79;21154;-59
2021/06/22 09:36:55;;;;;;;;;;;;;;;24.61;72.68;100400.52;1751600;79;20188;-59
2021/06/22 09:39:22;;;;;;;;;;;;;;;24.62;72.62;100398.52;1755173;80;20105;-59
2021/06/22 09:41:49;;;;;;;;;;;;;;;24.64;72.53;100404.56;1749700;80;20163;-59
2021/06/22 09:44:17;;;;;;;;;;;;;;;24.62;72.45;100394.35;1752088;80;20188;-60
2021/06/22 09:46:45;;;;;;;;;;;;;;;24.60;72.36;100401.68;1753947;81;21158;-59
2021/06/22 09:49:14;;;;;;;;;;;;;;;24.57;72.28;100400.39;1752412;80;20240;-60
2021/06/22 09:52:00;;;;;;;;;;;;;;;24.55;72.20;100394.97;1754575;80;20224;-59
2021/06/22 09:54:33;;;;;;;;;;;;;;;24.50;72.14;100400.20;1752575;81;20446;-59
2021/06/22 09:57:11;;;;;;;;;;;;;;;24.47;72.12;100395.94;1751577;81;20122;-60
2021/06/22 10:00:03;;;;;;;;;;;;;;;24.42;72.04;100395.60;1758651;79;22152;-59
2021/06/22 10:02:27;;;;;;;;;;;;;;;24.38;72.04;100396.08;1758385;79;20195;-60
2021/06/22 10:04:58;;;;;;;;;;;;;;;24.34;72.03;100392.39;1763194;79;20092;-58
2021/06/22 10:07:25;;;;;;;;;;;;;;;24.31;72.00;100386.73;1753437;80;20493;-59
2021/06/22 10:09:53;;;;;;;;;;;;;;;24.27;72.02;100385.25;1765462;79;20156;-59
2021/06/22 10:12:19;;;;;;;;;;;;;;;24.25;71.99;100377.83;1731142;80;21066;-59
2021/06/22 10:14:46;;;;;;;;;;;;;;;24.25;71.98;100372.27;1734463;81;20277;-59
2021/06/22 10:17:14;;;;;;;;;;;;;;;24.25;72.02;100378.40;1749935;79;20168;-58
2021/06/22 10:19:41;;;;;;;;;;;;;;;24.25;72.08;100370.88;1767747;79;20125;-58
2021/06/22 10:22:07;;;;;;;;;;;;;;;24.28;72.13;100378.50;1762194;80;20145;-58
2021/06/22 10:24:35;;;;;;;;;;;;;;;24.32;72.20;100379.41;1757192;79;21078;-58
2021/06/22 10:27:02;;;;;;;;;;;;;;;24.36;72.22;100366.42;1763095;79;20128;-57
2021/06/22 10:29:28;;;;;;;;;;;;;;;24.41;72.20;100362.00;1762542;79;20133;-58
2021/06/22 10:31:56;;;;;;;;;;;;;;;24.45;72.16;100355.95;1706708;81;20193;-57
2021/06/22 10:34:22;;;;;;;;;;;;;;;24.48;72.11;100355.84;1705790;82;20150;-59
2021/06/22 10:36:51;;;;;;;;;;;;;;;24.52;72.08;100360.34;1734483;80;20972;-59
2021/06/22 10:39:24;;;;;;;;;;;;;;;24.58;72.04;100360.30;1730901;81;20398;-58
2021/06/22 10:41:50;;;;;;;;;;;;;;;24.63;71.94;100359.81;1734836;79;20282;-58
2021/06/22 10:44:29;;;;;;;;;;;;;;;24.67;71.88;100353.19;1731045;80;20779;-59
2021/06/22 10:47:25;;;;;;;;;;;;;;;24.70;71.80;100354.44;1728000;80;20206;-58
2021/06/22 10:50:09;;;;;;;;;;;;;;;24.73;71.74;100342.63;1686500;82;21178;-58
2021/06/22 10:52:46;;;;;;;;;;;;;;;24.76;71.61;100337.72;1730698;81;20199;-58
2021/06/22 10:55:24;;;;;;;;;;;;;;;24.77;71.52;100343.52;1702708;82;20568;-58
2021/06/22 10:58:06;;;;;;;;;;;;;;;24.76;71.40;100338.53;1689783;82;20239;-58
2021/06/22 11:00:42;;;;;;;;;;;;;;;24.76;71.31;100340.50;1696432;83;20266;-59
2021/06/22 11:03:26;;;;;;;;;;;;;;;24.73;71.25;100346.21;1698399;83;21239;-59
2021/06/22 11:06:14;;;;;;;;;;;;;;;24.71;71.19;100342.97;1678118;83;20227;-59
2021/06/22 11:08:41;;;;;;;;;;;;;;;24.68;71.14;100345.66;1699978;82;20177;-59
2021/06/22 11:11:11;;;;;;;;;;;;;;;24.67;71.11;100341.25;1668545;83;20521;-58
2021/06/22 11:13:46;;;;;;;;;;;;;;;24.66;71.08;100336.84;1673168;84;20215;-58
2021/06/22 11:16:22;;;;;;;;;;;;;;;24.65;71.07;100341.63;1685353;83;21137;-58
2021/06/22 11:18:57;;;;;;;;;;;;;;;24.64;71.05;100337.80;1681511;83;20266;-58
2021/06/22 11:21:26;;;;;;;;;;;;;;;24.63;71.00;100338.95;1732300;81;20151;-59
2021/06/22 11:24:03;;;;;;;;;;;;;;;24.62;70.98;100335.94;1732668;80;20229;-59
2021/06/22 11:26:30;;;;;;;;;;;;;;;24.60;70.95;100329.94;1732057;80;20159;-59
2021/06/22 11:28:58;;;;;;;;;;;;;;;24.58;70.93;100328.89;1733831;80;21167;-61
2021/06/22 11:31:44;;;;;;;;;;;;;;;24.60;70.91;100328.55;1729295;82;20195;-59
2021/06/22 11:34:17;;;;;;;;;;;;;;;24.61;70.88;100319.05;1721518;81;20143;-59
2021/06/22 11:36:45;;;;;;;;;;;;;;;24.62;70.91;100320.06;1730522;80;20190;-59
2021/06/22 11:39:21;;;;;;;;;;;;;;;24.65;70.93;100311.03;1728802;80;20179;-59
2021/06/22 11:42:10;;;;;;;;;;;;;;;24.69;70.95;100311.12;1742760;80;21256;-59
2021/06/22 11:44:39;;;;;;;;;;;;;;;24.72;70.97;100309.81;1726076;82;20175;-60
2021/06/22 11:47:07;;;;;;;;;;;;;;;24.78;70.94;100307.59;1726084;81;20152;-60
2021/06/22 11:49:44;;;;;;;;;;;;;;;24.82;70.93;100309.30;1724240;81;20394;-59
2021/06/22 11:52:16;;;;;;;;;;;;;;;24.86;70.91;100306.05;1723293;81;20148;-59
2021/06/22 11:54:58;;;;;;;;;;;;;;;24.91;70.89;100299.38;1710043;81;21354;-60
2021/06/22 11:57:28;;;;;;;;;;;;;;;24.96;70.84;100297.73;1720338;82;20483;-57
2021/06/22 12:00:07;;;;;;;;;;;;;;;24.98;70.82;100293.44;1751079;79;20257;-59
2021/06/22 12:02:33;;;;;;;;;;;;;;;25.03;70.78;100295.72;1760976;79;20204;-58
2021/06/22 12:05:09;;;;;;;;;;;;;;;25.04;70.72;100285.60;1759436;79;20163;-58
2021/06/22 12:07:54;;;;;;;;;;;;;;;25.04;70.65;100286.99;1759934;79;21379;-58
2021/06/22 12:10:23;;;;;;;;;;;;;;;25.05;70.58;100293.38;1762620;79;20177;-58
2021/06/22 12:12:50;;;;;;;;;;;;;;;25.04;70.52;100295.34;1760591;79;20189;-58
2021/06/22 12:15:28;;;;;;;;;;;;;;;25.03;70.45;100297.92;1759373;79;20453;-58
2021/06/22 12:17:53;;;;;;;;;;;;;;;25.04;70.42;100298.13;1742139;79;20199;-58
2021/06/22 12:20:21;;;;;;;;;;;;;;;25.03;70.36;100290.97;1767544;79;21013;-58
2021/06/22 12:22:55;;;;;;;;;;;;;;;25.01;70.31;100285.75;1765849;79;20250;-57
2021/06/22 12:25:23;;;;;;;;;;;;;;;25.00;70.26;100283.31;1760299;79;20266;-58
2021/06/22 12:27:56;;;;;;;;;;;;;;;24.97;70.22;100291.00;1743078;79;20458;-58
2021/06/22 12:30:38;;;;;;;;;;;;;;;24.95;70.22;100284.39;1739311;80;20242;-58
2021/06/22 12:33:11;;;;;;;;;;;;;;;24.93;70.18;100284.54;1741225;79;21037;-58
2021/06/22 12:35:38;;;;;;;;;;;;;;;24.92;70.19;100290.69;1758521;79;20273;-58
2021/06/22 12:38:11;;;;;;;;;;;;;;;24.90;70.19;100293.03;1752787;79;20235;-59